Time;durP1;ratioP1;P1;durP2;ratioP2;P2;SDS_P1;SDS_P2;PMS_P1;PMS_P2;Temp;Humidity;BMP_temperature;BMP_pressure;BME280_temperature;BME280_humidity;BME280_pressure;Samples;Min_cycle;Max_cycle;Signal;HPM_P1;HPM_P2
2023/04/19 00:02:12;;;;;;;23.83;6.35;;;;;;;10.24;91.92;99838.28;1805535;79;21244;-79
2023/04/19 00:05:18;;;;;;;13.62;5.72;;;;;;;10.18;92.45;99834.90;1842956;78;21693;-86
2023/04/19 00:08:25;;;;;;;30.65;5.65;;;;;;;10.52;90.81;99836.30;1841437;77;21147;-79
2023/04/19 00:11:31;;;;;;;24.23;6.12;;;;;;;10.63;90.27;99834.45;1805605;79;23632;-79
2023/04/19 00:14:37;;;;;;;23.83;5.95;;;;;;;10.62;90.02;99832.76;1842913;78;21135;-81
2023/04/19 00:17:43;;;;;;;19.02;6.28;;;;;;;10.16;92.67;99833.73;1842795;78;21171;-79
2023/04/19 00:20:49;;;;;;;22.42;6.40;;;;;;;10.15;94.02;99827.06;1805648;79;21762;-88
2023/04/19 00:23:54;;;;;;;16.87;5.90;;;;;;;10.01;95.03;99823.78;1842861;78;21501;-88
2023/04/19 00:26:59;;;;;;;25.12;6.65;;;;;;;9.99;95.34;99830.28;1842014;78;21172;-87
2023/04/19 00:30:05;;;;;;;18.57;5.62;;;;;;;10.18;95.51;99833.02;1805559;79;21542;-87
2023/04/19 00:33:15;;;;;;;31.23;6.60;;;;;;;10.19;95.13;99825.66;1842859;78;21776;-88
2023/04/19 00:36:20;;;;;;;13.88;5.80;;;;;;;10.23;95.47;99814.69;1842982;78;21140;-87
2023/04/19 00:39:24;;;;;;;18.05;5.70;;;;;;;10.35;95.19;99818.71;1805794;79;21676;-80
2023/04/19 00:42:30;;;;;;;39.05;6.00;;;;;;;10.49;95.25;99816.51;1842794;78;21151;-87
2023/04/19 00:45:35;;;;;;;20.08;5.25;;;;;;;10.59;95.33;99814.86;1842823;78;21155;-89
2023/04/19 00:48:41;;;;;;;29.50;7.08;;;;;;;10.78;94.20;99808.48;1805649;79;21137;-90
2023/04/19 00:51:48;;;;;;;18.85;6.05;;;;;;;10.36;95.79;99809.47;1842931;78;21172;-89
2023/04/19 00:54:54;;;;;;;24.87;8.10;;;;;;;10.29;97.40;99789.89;1842817;78;21179;-86
2023/04/19 00:57:54;;;;;;;21.70;6.40;;;;;;;10.23;97.96;99790.94;1805402;79;21141;-86
2023/04/19 01:00:46;;;;;;;15.05;6.15;;;;;;;10.30;98.32;99801.99;1842818;78;21179;-86
2023/04/19 01:03:35;;;;;;;28.20;6.35;;;;;;;10.40;97.92;99801.23;1842447;77;21182;-86
2023/04/19 01:06:28;;;;;;;21.65;6.33;;;;;;;10.45;97.70;99792.46;1805472;79;21161;-79
2023/04/19 01:09:34;;;;;;;18.37;5.45;;;;;;;10.52;97.28;99782.45;1839575;78;21713;-79
2023/04/19 01:12:39;;;;;;;22.60;6.40;;;;;;;10.43;98.33;99780.33;1840507;78;21724;-79
2023/04/19 01:15:46;;;;;;;19.27;6.03;;;;;;;10.30;99.01;99796.52;1819516;79;21180;-86
2023/04/19 01:18:51;;;;;;;30.92;6.05;;;;;;;10.30;99.40;99784.22;1840584;78;21135;-85
2023/04/19 01:21:57;;;;;;;28.70;5.97;;;;;;;10.27;99.58;99780.52;1840638;78;21167;-86
2023/04/19 01:25:03;;;;;;;21.00;7.12;;;;;;;10.29;100.00;99781.17;1819706;79;21137;-87
2023/04/19 01:28:08;;;;;;;30.27;6.35;;;;;;;10.36;99.52;99790.85;1840456;78;21670;-87
2023/04/19 01:31:14;;;;;;;29.98;7.00;;;;;;;10.43;99.41;99786.31;1840471;78;21116;-86
2023/04/19 01:34:13;;;;;;;17.10;6.40;;;;;;;10.55;98.91;99779.87;1819801;79;21133;-80
2023/04/19 01:37:05;;;;;;;21.60;7.05;;;;;;;10.47;98.78;99779.44;1840049;78;21198;-86
2023/04/19 01:40:12;;;;;;;25.85;8.13;;;;;;;10.57;98.20;99778.63;1840753;78;21188;-86
2023/04/19 01:43:04;;;;;;;26.93;7.30;;;;;;;10.45;99.66;99774.17;1819801;79;21639;-79
2023/04/19 01:46:09;;;;;;;19.23;6.30;;;;;;;10.66;98.84;99772.55;1840508;78;21128;-79
2023/04/19 01:49:15;;;;;;;24.85;6.92;;;;;;;10.59;97.63;99762.89;1840412;78;21213;-79
2023/04/19 01:52:20;;;;;;;19.62;5.45;;;;;;;10.30;100.00;99769.19;1819636;79;21188;-87
2023/04/19 01:55:26;;;;;;;24.40;5.92;;;;;;;10.29;100.00;99775.70;1840594;78;21151;-82
2023/04/19 01:58:31;;;;;;;13.93;5.85;;;;;;;10.34;100.00;99773.25;1838998;78;21179;-87
2023/04/19 02:01:36;;;;;;;18.60;6.05;;;;;;;10.49;99.83;99768.66;1819453;79;21184;-87
2023/04/19 02:04:43;;;;;;;24.67;6.22;;;;;;;10.66;98.93;99776.65;1840545;78;21182;-87
2023/04/19 02:07:51;;;;;;;18.67;6.08;;;;;;;10.85;98.10;99774.69;1840485;78;21175;-84
2023/04/19 02:10:57;;;;;;;21.07;5.85;;;;;;;10.81;98.28;99772.00;1819728;79;21184;-86
2023/04/19 02:14:02;;;;;;;21.65;6.08;;;;;;;10.81;98.21;99776.10;1840528;78;21685;-87
2023/04/19 02:17:07;;;;;;;25.08;6.58;;;;;;;11.15;96.69;99784.20;1840561;78;21732;-80
2023/04/19 02:20:16;;;;;;;23.90;6.83;;;;;;;10.91;96.60;99778.02;1819614;79;21129;-87
2023/04/19 02:23:21;;;;;;;16.65;6.58;;;;;;;10.92;97.61;99772.90;1840501;78;21190;-80
2023/04/19 02:26:26;;;;;;;22.65;6.95;;;;;;;11.00;96.96;99778.23;1840550;78;21606;-79
2023/04/19 02:29:31;;;;;;;21.48;5.22;;;;;;;11.13;96.51;99776.71;1819532;79;21141;-87
2023/04/19 02:32:36;;;;;;;14.33;5.75;;;;;;;10.63;98.57;99771.55;1840745;78;21202;-80
2023/04/19 02:35:43;;;;;;;17.82;6.12;;;;;;;10.56;98.90;99763.78;1840472;78;21688;-87
2023/04/19 02:38:51;;;;;;;17.45;5.70;;;;;;;10.41;100.00;99760.54;1819697;79;21129;-79
2023/04/19 02:41:56;;;;;;;19.52;5.03;;;;;;;10.43;100.00;99768.02;1840488;78;21716;-79
2023/04/19 02:45:01;;;;;;;24.10;5.90;;;;;;;10.46;100.00;99764.08;1840510;78;21548;-79
2023/04/19 02:48:07;;;;;;;22.60;5.92;;;;;;;10.54;100.00;99768.58;1819487;79;21721;-80
2023/04/19 02:51:12;;;;;;;19.55;5.62;;;;;;;10.70;99.37;99772.50;1840480;78;21688;-78
2023/04/19 02:54:18;;;;;;;25.75;6.53;;;;;;;10.65;99.41;99774.44;1819713;79;21134;-79
2023/04/19 02:57:24;;;;;;;19.52;5.45;;;;;;;10.52;100.00;99767.94;1840566;78;21186;-89
2023/04/19 03:00:32;;;;;;;18.67;6.40;;;;;;;10.66;99.76;99767.92;1819721;79;22092;-79
2023/04/19 03:03:33;;;;;;;21.37;5.58;;;;;;;10.64;99.09;99759.07;1840459;78;21166;-77
2023/04/19 03:06:40;;;;;;;21.68;5.75;;;;;;;10.56;99.59;99746.02;1819580;79;21196;-86
2023/04/19 03:09:47;;;;;;;19.05;6.08;;;;;;;10.56;100.00;99751.48;1842166;76;21147;-85
2023/04/19 03:12:54;;;;;;;19.85;6.67;;;;;;;10.49;100.00;99756.35;1815832;79;21210;-85
2023/04/19 03:15:59;;;;;;;23.05;6.40;;;;;;;10.51;100.00;99753.42;1787352;80;21740;-78
2023/04/19 03:19:05;;;;;;;18.77;5.67;;;;;;;10.49;100.00;99750.88;1795130;80;21191;-82
2023/04/19 03:22:13;;;;;;;23.07;6.53;;;;;;;10.43;100.00;99757.61;1795688;80;21192;-78
2023/04/19 03:25:19;;;;;;;34.88;6.25;;;;;;;10.40;100.00;99760.73;1796160;80;21152;-86
2023/04/19 03:28:27;;;;;;;16.37;5.90;;;;;;;10.44;100.00;99753.83;1794126;80;21164;-86
2023/04/19 03:31:45;;;;;;;29.12;6.58;;;;;;;10.39;100.00;99754.39;1794647;80;21235;-86
2023/04/19 03:34:51;;;;;;;38.40;7.90;;;;;;;10.40;100.00;99763.47;1795549;80;21195;-87
2023/04/19 03:37:58;;;;;;;17.87;6.00;;;;;;;10.46;100.00;99760.82;1795124;80;21203;-80
2023/04/19 03:41:04;;;;;;;44.77;7.28;;;;;;;10.54;100.00;99764.48;1796116;80;21156;-87
2023/04/19 03:44:10;;;;;;;26.02;6.62;;;;;;;10.61;100.00;99766.80;1796098;80;21144;-87
2023/04/19 03:47:16;;;;;;;29.60;6.33;;;;;;;10.69;100.00;99762.08;1795586;80;21183;-80
2023/04/19 03:50:23;;;;;;;32.58;5.62;;;;;;;10.62;100.00;99761.65;1795287;80;21164;-80
2023/04/19 03:53:29;;;;;;;30.12;7.17;;;;;;;10.56;100.00;99763.78;1794652;80;21812;-88
2023/04/19 03:56:35;;;;;;;30.05;5.87;;;;;;;10.63;100.00;99757.87;1796110;80;21179;-80
2023/04/19 03:59:43;;;;;;;34.45;6.50;;;;;;;10.72;100.00;99755.36;1796132;80;21168;-88
2023/04/19 04:02:49;;;;;;;27.75;5.47;;;;;;;10.93;99.34;99750.48;1794835;80;21259;-87
2023/04/19 04:06:00;;;;;;;34.18;6.25;;;;;;;10.96;98.71;99746.85;1795157;80;21792;-82
2023/04/19 04:09:03;;;;;;;21.90;5.45;;;;;;;11.04;98.58;99736.81;1795642;80;21176;-88
2023/04/19 04:12:08;;;;;;;33.08;5.80;;;;;;;11.06;98.18;99733.38;1795338;79;21164;-80
2023/04/19 04:15:16;;;;;;;37.95;6.40;;;;;;;11.09;98.40;99731.08;1796180;80;21211;-79
2023/04/19 04:18:25;;;;;;;30.72;6.40;;;;;;;11.24;97.67;99722.81;1794809;80;21187;-88
2023/04/19 04:21:32;;;;;;;45.83;7.55;;;;;;;11.22;97.18;99715.33;1796114;80;21713;-80
2023/04/19 04:24:43;;;;;;;48.92;6.78;;;;;;;11.59;95.87;99701.89;1794616;80;21203;-80
2023/04/19 04:27:53;;;;;;;54.25;7.45;;;;;;;11.88;94.51;99707.73;1794641;80;21160;-86
2023/04/19 04:31:00;;;;;;;60.98;8.95;;;;;;;12.09;94.01;99714.19;1796105;80;21172;-85
2023/04/19 04:34:08;;;;;;;53.60;7.90;;;;;;;12.30;93.17;99720.98;1796169;80;21157;-86
2023/04/19 04:37:17;;;;;;;45.03;6.95;;;;;;;11.98;94.98;99718.34;1795654;80;21756;-82
2023/04/19 04:40:23;;;;;;;69.17;7.55;;;;;;;12.20;94.13;99722.72;1796220;80;21740;-79
2023/04/19 04:43:31;;;;;;;67.65;7.85;;;;;;;12.40;92.51;99707.74;1796220;80;21171;-87
2023/04/19 04:46:36;;;;;;;57.80;7.45;;;;;;;12.59;90.90;99718.50;1796278;80;21227;-87
2023/04/19 04:49:37;;;;;;;70.05;8.43;;;;;;;12.79;86.51;99714.46;1796285;80;21215;-79
2023/04/19 04:52:41;;;;;;;79.92;9.73;;;;;;;12.63;87.19;99708.81;1796206;80;21211;-87
2023/04/19 04:55:53;;;;;;;72.27;7.72;;;;;;;12.82;84.96;99700.87;1796525;80;21152;-87
2023/04/19 04:58:58;;;;;;;57.93;8.03;;;;;;;12.68;84.68;99695.32;1796218;80;21144;-79
2023/04/19 05:02:06;;;;;;;75.35;7.85;;;;;;;12.62;84.31;99692.03;1796221;80;21208;-79
2023/04/19 05:05:12;;;;;;;41.92;7.47;;;;;;;12.84;84.40;99689.14;1796162;80;21155;-86
2023/04/19 05:08:19;;;;;;;53.60;7.95;;;;;;;12.56;84.84;99682.39;1804841;78;21191;-88
2023/04/19 05:11:26;;;;;;;88.52;10.45;;;;;;;12.86;81.41;99674.17;1842515;77;21129;-88
2023/04/19 05:14:32;;;;;;;66.75;8.28;;;;;;;12.69;82.57;99672.84;1796511;79;21166;-79
2023/04/19 05:17:37;;;;;;;79.25;8.30;;;;;;;12.51;84.22;99672.90;1830057;78;21628;-88
2023/04/19 05:20:43;;;;;;;70.83;9.00;;;;;;;12.48;83.58;99670.55;1829078;78;21550;-79
2023/04/19 05:23:52;;;;;;;64.07;8.03;;;;;;;12.27;83.98;99677.50;1816379;78;21144;-88
2023/04/19 05:26:57;;;;;;;50.15;8.28;;;;;;;12.46;83.46;99669.05;1819425;78;21768;-80
2023/04/19 05:30:03;;;;;;;72.15;8.05;;;;;;;12.27;83.46;99677.50;1806095;79;21527;-88
2023/04/19 05:33:09;;;;;;;58.20;8.63;;;;;;;12.03;84.54;99665.98;1837825;78;21184;-88
2023/04/19 05:36:15;;;;;;;75.57;8.05;;;;;;;12.15;84.63;99679.14;1836417;78;21188;-88
2023/04/19 05:39:20;;;;;;;93.87;9.65;;;;;;;12.31;84.25;99677.42;1832922;78;21148;-88
2023/04/19 05:42:25;;;;;;;56.23;6.97;;;;;;;12.47;83.46;99696.83;1814695;78;21740;-88
2023/04/19 05:45:31;;;;;;;71.72;10.30;;;;;;;12.71;81.98;99705.91;1839297;78;21133;-88
2023/04/19 05:48:36;;;;;;;74.15;9.58;;;;;;;12.68;81.22;99709.57;1826343;78;21762;-88
2023/04/19 05:51:50;;;;;;;52.13;8.18;;;;;;;12.90;80.62;99722.66;1803360;78;21183;-88
2023/04/19 05:55:00;;;;;;;80.75;9.18;;;;;;;12.78;81.05;99718.27;1811885;79;21211;-87
2023/04/19 05:57:55;;;;;;;65.50;8.48;;;;;;;12.93;81.47;99727.18;1797717;79;21204;-88
2023/04/19 06:00:42;;;;;;;45.08;8.20;;;;;;;13.01;81.71;99724.26;1836351;78;21112;-80
2023/04/19 06:03:33;;;;;;;74.25;8.88;;;;;;;13.20;79.29;99728.64;1813995;79;21201;-80
2023/04/19 06:06:22;;;;;;;46.08;7.70;;;;;;;13.12;80.05;99724.17;1810816;79;21196;-80
2023/04/19 06:09:22;;;;;;;56.80;7.47;;;;;;;13.13;81.33;99731.38;1830833;78;21144;-86
2023/04/19 06:12:30;;;;;;;57.90;6.87;;;;;;;13.36;79.86;99724.69;1828523;78;21199;-79
2023/04/19 06:15:35;;;;;;;63.50;8.00;;;;;;;13.39;77.42;99740.23;1838182;77;21545;-87
2023/04/19 06:18:42;;;;;;;47.73;6.80;;;;;;;13.43;77.51;99744.26;1787108;78;21134;-87
2023/04/19 06:21:48;;;;;;;77.08;9.35;;;;;;;13.61;76.37;99757.92;1800211;79;21215;-87
2023/04/19 06:24:54;;;;;;;73.47;8.80;;;;;;;13.56;76.73;99766.80;1805092;78;21129;-88
2023/04/19 06:28:00;;;;;;;80.50;7.75;;;;;;;13.67;76.74;99780.44;1805978;79;21729;-87
2023/04/19 06:31:05;;;;;;;64.42;8.00;;;;;;;13.66;75.92;99769.98;1814666;78;21706;-87
2023/04/19 06:34:11;;;;;;;68.00;9.03;;;;;;;13.53;76.46;99781.78;1808824;77;21136;-87
2023/04/19 06:37:18;;;;;;;63.02;8.03;;;;;;;13.75;75.92;99782.99;1806548;79;21690;-87
2023/04/19 06:40:23;;;;;;;62.88;8.20;;;;;;;13.99;74.57;99779.62;1826073;78;21725;-86
2023/04/19 06:43:29;;;;;;;54.20;7.87;;;;;;;14.16;74.79;99769.55;1831673;78;21154;-87
2023/04/19 06:46:34;;;;;;;54.23;8.55;;;;;;;14.46;74.71;99778.20;1827695;78;21168;-86
2023/04/19 06:49:40;;;;;;;55.38;7.87;;;;;;;14.66;75.57;99776.81;1832546;78;21121;-80
2023/04/19 06:52:45;;;;;;;48.98;6.78;;;;;;;15.02;72.40;99774.36;1821897;78;21156;-87
2023/04/19 06:55:51;;;;;;;48.75;8.15;;;;;;;15.01;72.20;99769.08;1827199;78;21840;-86
2023/04/19 06:58:59;;;;;;;61.65;9.53;;;;;;;15.11;72.33;99772.75;1828359;78;21696;-87
2023/04/19 07:02:04;;;;;;;67.72;8.85;;;;;;;15.01;70.68;99753.94;1818651;78;21149;-87
2023/04/19 07:05:12;;;;;;;55.48;7.40;;;;;;;14.78;70.29;99766.84;1818757;78;21141;-80
2023/04/19 07:08:16;;;;;;;46.50;6.78;;;;;;;14.65;70.79;99751.20;1820680;78;21177;-87
2023/04/19 07:11:23;;;;;;;54.38;7.12;;;;;;;14.47;73.80;99752.38;1817557;78;21109;-80
2023/04/19 07:14:28;;;;;;;54.48;7.92;;;;;;;14.62;71.10;99760.41;1813805;78;21708;-88
2023/04/19 07:17:35;;;;;;;54.60;7.90;;;;;;;14.47;71.06;99754.59;1810312;79;21148;-79
2023/04/19 07:20:43;;;;;;;47.23;6.97;;;;;;;14.61;71.09;99759.56;1806295;79;21191;-87
2023/04/19 07:23:39;;;;;;;;;;;;;;;14.56;72.10;99758.84;1800381;77;21136;-86
2023/04/19 07:26:44;;;;;;;39.20;6.37;;;;;;;14.64;71.50;99755.02;1799587;79;20208;-88
2023/04/19 07:29:49;;;;;;;43.25;7.75;;;;;;;14.73;71.12;99757.84;1802370;79;21176;-80
2023/04/19 07:32:54;;;;;;;45.30;6.97;;;;;;;14.60;70.08;99755.13;1802269;79;21175;-87
2023/04/19 07:36:00;;;;;;;51.55;6.10;;;;;;;14.57;70.27;99757.77;1805175;79;21541;-87
2023/04/19 07:39:04;;;;;;;43.10;5.67;;;;;;;14.38;70.54;99757.25;1799989;79;21169;-80
2023/04/19 07:42:09;;;;;;;50.50;6.58;;;;;;;14.38;70.01;99743.50;1805943;78;21150;-79
2023/04/19 07:45:15;;;;;;;39.95;6.15;;;;;;;14.19;72.59;99746.59;1803908;77;21748;-79
2023/04/19 07:48:20;;;;;;;52.62;7.83;;;;;;;14.24;71.49;99741.30;1806547;78;21145;-79
2023/04/19 07:51:19;;;;;;;58.75;7.72;;;;;;;14.10;72.48;99730.53;1806085;78;21133;-80
2023/04/19 07:54:15;;;;;;;39.35;5.67;;;;;;;14.23;72.49;99724.48;1808094;79;21169;-79
2023/04/19 07:57:20;;;;;;;50.12;6.25;;;;;;;14.28;72.13;99719.72;1806560;79;21773;-80
2023/04/19 08:00:21;;;;;;;38.48;6.28;;;;;;;14.35;71.98;99705.44;1802126;77;21152;-87
2023/04/19 08:03:26;;;;;;;64.55;6.60;;;;;;;14.37;71.52;99701.08;1805587;79;21170;-87
2023/04/19 08:06:32;;;;;;;39.00;5.10;;;;;;;14.35;70.84;99699.05;1800925;79;21251;-87
2023/04/19 08:09:37;;;;;;;44.35;7.33;;;;;;;14.67;71.18;99694.55;1801629;78;21197;-87
2023/04/19 08:12:43;;;;;;;32.42;5.50;;;;;;;14.89;70.79;99700.06;1817284;77;21149;-88
2023/04/19 08:15:50;;;;;;;38.78;5.67;;;;;;;14.86;68.61;99703.25;1812772;77;21211;-88
2023/04/19 08:18:57;;;;;;;50.88;5.90;;;;;;;15.21;69.74;99694.61;1810992;77;21120;-88
2023/04/19 08:22:03;;;;;;;50.95;6.33;;;;;;;15.38;71.11;99697.12;1831144;78;21699;-88
2023/04/19 08:25:08;;;;;;;26.95;6.15;;;;;;;15.72;66.17;99698.61;1808781;79;21145;-88
2023/04/19 08:28:13;;;;;;;39.58;5.97;;;;;;;15.55;65.48;99696.05;1834351;76;21193;-88
2023/04/19 08:31:20;;;;;;;39.48;5.80;;;;;;;15.52;65.97;99693.20;1798650;78;21195;-88
2023/04/19 08:34:25;;;;;;;39.18;6.62;;;;;;;15.47;67.74;99691.65;1837986;76;21695;-88
2023/04/19 08:37:30;;;;;;;38.88;6.05;;;;;;;15.64;67.20;99687.02;1805644;79;21155;-88
2023/04/19 08:40:37;;;;;;;35.88;4.53;;;;;;;15.89;67.23;99683.70;1799397;79;21751;-88
2023/04/19 08:43:43;;;;;;;42.83;6.20;;;;;;;16.00;65.99;99695.40;1831013;76;21783;-87
2023/04/19 08:46:49;;;;;;;42.50;5.58;;;;;;;15.92;65.31;99682.42;1817000;78;21827;-79
2023/04/19 08:49:54;;;;;;;42.55;6.33;;;;;;;16.00;64.77;99687.13;1817360;78;21164;-80
2023/04/19 08:53:01;;;;;;;39.15;5.70;;;;;;;15.90;65.20;99693.66;1808358;78;21123;-79
2023/04/19 08:56:09;;;;;;;42.40;6.62;;;;;;;15.82;66.71;99685.70;1806102;78;21140;-79
2023/04/19 08:59:16;;;;;;;40.20;5.50;;;;;;;15.93;65.63;99693.76;1809509;77;21140;-79
2023/04/19 09:02:22;;;;;;;39.35;6.90;;;;;;;15.97;66.63;99682.05;1816064;77;21156;-79
2023/04/19 09:05:28;;;;;;;32.53;6.30;;;;;;;16.03;65.25;99686.65;1817891;78;21179;-80
2023/04/19 09:08:37;;;;;;;33.65;4.55;;;;;;;15.92;63.65;99673.61;1810978;77;21155;-80
2023/04/19 09:11:43;;;;;;;37.75;5.47;;;;;;;16.15;65.15;99688.68;1812825;77;21183;-80
2023/04/19 09:14:51;;;;;;;41.55;5.22;;;;;;;16.31;63.74;99688.07;1816623;78;21116;-80
2023/04/19 09:18:10;;;;;;;36.03;4.62;;;;;;;16.44;62.67;99693.98;1804221;78;21255;-80
2023/04/19 09:21:15;;;;;;;34.53;5.20;;;;;;;16.54;62.65;99690.15;1806515;79;21129;-80
2023/04/19 09:24:14;;;;;;;39.98;5.10;;;;;;;16.28;63.53;99690.77;1802925;79;21136;-80
2023/04/19 09:27:06;;;;;;;25.92;4.85;;;;;;;16.14;62.87;99682.83;1805040;77;21172;-80
2023/04/19 09:29:56;;;;;;;37.40;6.28;;;;;;;16.29;63.71;99690.23;1804632;78;21160;-80
2023/04/19 09:32:53;;;;;;;36.13;4.70;;;;;;;16.38;63.97;99686.64;1796813;79;21166;-80
2023/04/19 09:35:48;;;;;;;33.10;5.17;;;;;;;16.60;61.93;99705.24;1789240;79;21141;-80
2023/04/19 09:38:53;;;;;;;;;;;;;;;16.55;62.77;99694.59;1791145;79;22328;-89
2023/04/19 09:42:01;;;;;;;37.03;5.87;;;;;;;16.78;61.59;99695.30;1787317;79;20203;-80
2023/04/19 09:45:06;;;;;;;38.70;6.15;;;;;;;16.52;61.91;99688.17;1798514;78;21552;-80
2023/04/19 09:48:13;;;;;;;40.63;6.62;;;;;;;16.60;61.46;99687.84;1796277;78;21814;-80
2023/04/19 09:51:18;;;;;;;37.38;5.78;;;;;;;16.84;60.98;99681.44;1801892;78;21208;-89
2023/04/19 09:54:26;;;;;;;25.08;4.17;;;;;;;16.86;59.10;99684.80;1794822;79;21523;-89
2023/04/19 09:57:31;;;;;;;36.13;5.83;;;;;;;16.88;58.90;99695.59;1796763;79;21197;-89
2023/04/19 10:00:36;;;;;;;34.43;5.53;;;;;;;16.88;59.21;99687.31;1793248;79;21133;-88
2023/04/19 10:03:42;;;;;;;35.52;5.25;;;;;;;16.96;60.48;99688.92;1791292;79;21133;-89
2023/04/19 10:06:49;;;;;;;46.10;5.87;;;;;;;16.94;58.66;99691.92;1798041;79;21169;-88
2023/04/19 10:09:56;;;;;;;38.05;5.53;;;;;;;17.06;59.26;99690.58;1799641;79;21741;-88
2023/04/19 10:12:57;;;;;;;38.25;5.35;;;;;;;17.14;57.39;99687.50;1797232;79;21164;-88
2023/04/19 10:15:50;;;;;;;35.92;5.85;;;;;;;17.29;58.04;99695.36;1800891;79;21133;-88
2023/04/19 10:18:56;;;;;;;;;;;;;;;17.23;58.46;99689.40;1797616;78;21706;-88
2023/04/19 10:22:04;;;;;;;30.92;4.65;;;;;;;17.21;58.02;99691.54;1802013;78;20701;-89
2023/04/19 10:25:16;;;;;;;34.75;4.78;;;;;;;17.15;59.06;99699.39;1791996;79;21178;-88
2023/04/19 10:28:24;;;;;;;34.78;5.08;;;;;;;16.99;58.07;99698.98;1797247;79;21856;-89
2023/04/19 10:31:30;;;;;;;28.50;5.00;;;;;;;16.69;59.76;99693.90;1792749;79;21686;-89
2023/04/19 10:34:46;;;;;;;51.65;7.53;;;;;;;16.44;61.42;99699.52;1782656;79;21129;-89
2023/04/19 10:38:11;;;;;;;34.15;5.03;;;;;;;16.42;62.21;99696.98;1794633;79;21169;-89
2023/04/19 10:41:18;;;;;;;33.10;5.08;;;;;;;16.52;62.95;99711.09;1793879;79;21187;-89
2023/04/19 10:44:24;;;;;;;32.38;5.62;;;;;;;16.51;63.34;99712.14;1787055;79;21138;-88
2023/04/19 10:47:50;;;;;;;26.97;5.92;;;;;;;16.51;62.75;99713.52;1793354;78;21202;-89
2023/04/19 10:51:15;;;;;;;38.90;5.05;;;;;;;16.44;63.31;99722.43;1795271;79;21185;-90
2023/04/19 10:54:44;;;;;;;47.40;5.58;;;;;;;16.69;62.60;99713.23;1795503;79;21772;-89
2023/04/19 10:58:13;;;;;;;34.15;5.67;;;;;;;16.78;60.81;99716.02;1797701;79;21702;-87
2023/04/19 11:01:42;;;;;;;45.00;5.47;;;;;;;16.45;61.41;99724.66;1790843;79;21228;-89
2023/04/19 11:04:59;;;;;;;31.77;4.90;;;;;;;16.55;61.93;99727.18;1797558;78;21142;-88
2023/04/19 11:08:04;;;;;;;40.30;7.12;;;;;;;16.48;59.80;99722.83;1799679;79;21180;-89
2023/04/19 11:11:11;;;;;;;26.82;4.67;;;;;;;16.08;61.54;99723.20;1795986;79;21157;-80
2023/04/19 11:14:18;;;;;;;33.33;6.35;;;;;;;15.93;61.83;99726.31;1798195;79;21161;-80
2023/04/19 11:17:31;;;;;;;27.80;5.28;;;;;;;15.72;63.39;99725.34;1797899;79;21189;-79
2023/04/19 11:20:36;;;;;;;39.85;5.60;;;;;;;15.60;64.54;99726.02;1795923;79;21153;-79
2023/04/19 11:23:41;;;;;;;27.52;5.67;;;;;;;15.50;64.38;99729.80;1800772;79;21133;-89
2023/04/19 11:26:49;;;;;;;52.67;5.87;;;;;;;15.28;64.78;99739.47;1803160;78;21152;-79
2023/04/19 11:29:55;;;;;;;34.20;5.20;;;;;;;15.02;65.16;99747.36;1821497;77;21733;-79
2023/04/19 11:33:01;;;;;;;28.50;4.87;;;;;;;14.97;65.29;99741.13;1790419;79;21185;-88
2023/04/19 11:36:07;;;;;;;29.98;5.50;;;;;;;14.95;64.75;99737.73;1786630;79;21141;-88
2023/04/19 11:39:13;;;;;;;32.93;5.22;;;;;;;14.97;64.88;99730.11;1798056;79;21157;-80
2023/04/19 11:42:26;;;;;;;28.15;5.55;;;;;;;14.92;65.97;99738.72;1784143;79;21797;-80
2023/04/19 11:45:35;;;;;;;33.25;4.75;;;;;;;14.85;65.04;99732.38;1792326;79;21176;-80
2023/04/19 11:48:40;;;;;;;51.25;5.62;;;;;;;14.39;66.96;99730.05;1794012;79;21774;-88
2023/04/19 11:51:49;;;;;;;30.27;6.72;;;;;;;14.32;68.22;99725.11;1788788;79;21185;-88
2023/04/19 11:54:54;;;;;;;43.75;6.70;;;;;;;14.37;68.32;99727.22;1800175;79;21184;-80
2023/04/19 11:58:00;;;;;;;30.50;4.65;;;;;;;14.50;69.49;99720.34;1796727;79;21722;-89
2023/04/19 12:01:12;;;;;;;37.50;5.62;;;;;;;14.49;69.15;99725.00;1786435;79;21146;-79
2023/04/19 12:04:22;;;;;;;43.75;6.55;;;;;;;14.64;69.10;99718.39;1783740;79;21485;-88
2023/04/19 12:07:29;;;;;;;37.73;5.53;;;;;;;14.55;68.74;99725.51;1792669;79;21131;-79
2023/04/19 12:10:35;;;;;;;37.30;6.22;;;;;;;14.50;69.65;99715.68;1795541;79;21144;-80
2023/04/19 12:13:40;;;;;;;35.03;6.53;;;;;;;14.33;70.52;99714.41;1789663;79;21722;-80
2023/04/19 12:16:46;;;;;;;33.63;6.37;;;;;;;14.20;72.30;99715.28;1791805;79;21178;-88
2023/04/19 12:19:53;;;;;;;33.88;6.80;;;;;;;14.01;73.76;99727.99;1784868;79;21233;-80
2023/04/19 12:22:58;;;;;;;39.63;6.33;;;;;;;13.81;75.93;99721.14;1783504;80;21163;-79
2023/04/19 12:26:04;;;;;;;30.15;6.65;;;;;;;13.78;78.02;99723.45;1772409;80;21142;-88
2023/04/19 12:29:09;;;;;;;37.55;6.42;;;;;;;13.56;79.26;99724.20;1773283;80;21523;-80
2023/04/19 12:32:17;;;;;;;35.23;5.87;;;;;;;13.48;80.66;99723.87;1775960;80;21162;-80
2023/04/19 12:35:24;;;;;;;34.78;6.40;;;;;;;13.52;81.17;99726.52;1776353;80;21149;-87
2023/04/19 12:38:29;;;;;;;31.07;5.80;;;;;;;13.63;81.71;99724.20;1771497;80;21158;-80
2023/04/19 12:41:34;;;;;;;37.10;6.15;;;;;;;13.69;82.44;99716.48;1772611;80;21194;-88
2023/04/19 12:44:39;;;;;;;33.88;6.58;;;;;;;13.54;84.17;99713.41;1776753;80;21162;-79
2023/04/19 12:47:45;;;;;;;30.30;6.60;;;;;;;13.66;83.51;99718.30;1775599;80;21166;-88
2023/04/19 12:50:51;;;;;;;37.95;6.80;;;;;;;13.79;81.42;99710.89;1767812;80;21146;-79
2023/04/19 12:53:57;;;;;;;38.80;6.37;;;;;;;13.78;80.71;99719.33;1774087;80;21468;-87
2023/04/19 12:57:01;;;;;;;32.23;6.50;;;;;;;13.78;79.57;99721.58;1776745;80;21170;-81
2023/04/19 13:00:08;;;;;;;37.25;6.35;;;;;;;13.90;78.61;99717.65;1769887;80;21763;-79
2023/04/19 13:03:14;;;;;;;38.53;6.70;;;;;;;13.88;77.77;99712.03;1769557;80;21149;-88
2023/04/19 13:06:20;;;;;;;57.17;8.45;;;;;;;13.68;78.07;99719.75;1771114;80;21586;-80
2023/04/19 13:09:26;;;;;;;33.23;7.67;;;;;;;13.86;78.03;99714.16;1769163;80;21727;-87
2023/04/19 13:12:32;;;;;;;40.38;7.80;;;;;;;13.69;78.93;99726.97;1772382;80;21657;-88
2023/04/19 13:15:38;;;;;;;42.50;7.78;;;;;;;13.49;80.19;99714.56;1767400;80;21822;-88
2023/04/19 13:18:44;;;;;;;46.02;7.17;;;;;;;13.38;81.40;99717.94;1774910;80;21185;-87
2023/04/19 13:21:51;;;;;;;34.53;6.60;;;;;;;13.29;82.39;99712.33;1792356;78;21173;-80
2023/04/19 13:24:57;;;;;;;46.40;7.42;;;;;;;13.52;82.67;99703.16;1809448;79;21133;-85
2023/04/19 13:28:03;;;;;;;41.58;7.33;;;;;;;13.44;82.59;99706.64;1791502;79;21691;-81
2023/04/19 13:31:08;;;;;;;38.17;7.65;;;;;;;13.35;83.42;99701.02;1788374;79;21198;-79
2023/04/19 13:34:13;;;;;;;47.23;7.78;;;;;;;13.44;83.62;99701.98;1786589;79;21117;-88
2023/04/19 13:37:18;;;;;;;37.05;7.05;;;;;;;13.45;83.81;99698.70;1788779;79;21177;-88
2023/04/19 13:40:24;;;;;;;42.35;8.35;;;;;;;13.36;85.28;99696.72;1789074;79;21130;-88
2023/04/19 13:43:29;;;;;;;40.28;7.90;;;;;;;13.20;86.28;99708.89;1805388;78;21152;-88
2023/04/19 13:46:34;;;;;;;46.15;6.90;;;;;;;13.29;86.49;99699.97;1836871;77;21513;-88
2023/04/19 13:49:39;;;;;;;41.65;7.83;;;;;;;13.34;86.75;99702.93;1833888;77;21792;-79
2023/04/19 13:52:44;;;;;;;39.03;7.20;;;;;;;13.33;86.52;99697.66;1812799;79;21180;-79
2023/04/19 13:55:50;;;;;;;42.90;8.18;;;;;;;13.33;87.49;99702.63;1804876;79;21203;-81
2023/04/19 13:58:56;;;;;;;52.48;7.42;;;;;;;13.34;87.03;99700.19;1802454;79;21180;-87
2023/04/19 14:02:01;;;;;;;37.25;8.38;;;;;;;13.25;87.80;99700.06;1794348;79;21153;-80
2023/04/19 14:05:07;;;;;;;33.90;7.83;;;;;;;13.16;87.84;99693.88;1815998;77;21730;-80
2023/04/19 14:08:12;;;;;;;27.42;7.72;;;;;;;13.18;88.94;99688.20;1830757;77;21195;-80
2023/04/19 14:11:17;;;;;;;25.62;7.33;;;;;;;13.10;88.18;99704.33;1817355;79;21166;-81
2023/04/19 14:14:22;;;;;;;33.75;6.97;;;;;;;13.02;88.62;99693.53;1816900;77;21758;-87
2023/04/19 14:17:29;;;;;;;33.15;7.15;;;;;;;12.96;89.27;99691.09;1810733;79;21279;-80
2023/04/19 14:20:35;;;;;;;29.70;6.97;;;;;;;12.88;90.53;99689.90;1809666;78;21181;-81
2023/04/19 14:23:41;;;;;;;34.53;6.50;;;;;;;13.17;89.46;99685.11;1830509;76;21156;-87